Time;durP1;ratioP1;P1;durP2;ratioP2;P2;SDS_P1;SDS_P2;PMS_P1;PMS_P2;Temp;Humidity;BMP_temperature;BMP_pressure;BME280_temperature;BME280_humidity;BME280_pressure;Samples;Min_cycle;Max_cycle;Signal;HPM_P1;HPM_P2
2022/06/23 00:01:02;;;;;;;9.53;6.20;;;;;;;15.97;73.13;101059.13;5006686;28;20022;-83
2022/06/23 00:03:35;;;;;;;10.27;5.90;;;;;;;15.93;74.01;101057.94;5006993;28;20053;-81
2022/06/23 00:06:04;;;;;;;14.88;6.90;;;;;;;15.89;74.14;101045.03;5007999;28;20025;-81
2022/06/23 00:08:30;;;;;;;11.93;6.20;;;;;;;15.88;74.62;101055.09;5010558;28;20128;-81
2022/06/23 00:11:00;;;;;;;10.93;6.37;;;;;;;15.93;74.67;101046.19;5006265;28;20034;-80
2022/06/23 00:13:36;;;;;;;11.03;6.47;;;;;;;15.90;74.43;101035.72;5005503;28;20065;-80
2022/06/23 00:16:04;;;;;;;11.03;6.60;;;;;;;15.98;74.53;101038.94;5004063;28;20169;-81
2022/06/23 00:18:35;;;;;;;16.63;7.27;;;;;;;16.06;74.21;101040.44;5007363;28;20040;-81
2022/06/23 00:21:22;;;;;;;12.30;6.93;;;;;;;16.04;74.19;101046.13;5009203;28;20030;-84
2022/06/23 00:23:55;;;;;;;13.47;6.67;;;;;;;15.99;75.65;101045.22;5011434;28;20037;-81
2022/06/23 00:26:27;;;;;;;8.77;6.80;;;;;;;16.02;75.74;101045.56;5009084;28;20033;-81
2022/06/23 00:29:04;;;;;;;11.53;7.30;;;;;;;16.04;75.19;101048.88;5010414;28;20041;-81
2022/06/23 00:31:40;;;;;;;15.33;7.80;;;;;;;16.01;76.23;101043.91;5009559;28;20040;-82
2022/06/23 00:34:34;;;;;;;14.13;7.13;;;;;;;15.98;76.14;101036.19;5011662;28;21490;-81
2022/06/23 00:37:10;;;;;;;14.30;7.50;;;;;;;15.82;76.40;101015.13;5010750;28;20046;-81
2022/06/23 00:39:40;;;;;;;14.07;7.40;;;;;;;15.96;76.86;101035.59;5006752;28;20108;-81
2022/06/23 00:42:21;;;;;;;13.87;7.00;;;;;;;15.88;77.60;101037.91;5006699;28;20025;-81
2022/06/23 00:44:50;;;;;;;10.60;7.27;;;;;;;15.74;77.89;101029.13;5006689;28;20069;-81
2022/06/23 00:47:21;;;;;;;13.27;7.43;;;;;;;15.66;78.62;101046.72;5009252;28;20056;-81
2022/06/23 00:50:22;;;;;;;13.20;7.63;;;;;;;15.77;78.32;101045.84;5006738;28;20030;-83
2022/06/23 00:53:07;;;;;;;12.30;7.23;;;;;;;15.61;79.02;101038.41;5012950;28;20529;-81
2022/06/23 00:56:13;;;;;;;12.17;8.07;;;;;;;15.66;79.05;101049.44;5009937;28;20498;-81
2022/06/23 00:58:53;;;;;;;12.97;7.87;;;;;;;15.53;79.69;101045.09;5008080;28;20034;-82
2022/06/23 01:01:30;;;;;;;10.60;7.70;;;;;;;15.55;80.20;101045.66;5011271;28;20061;-81
2022/06/23 01:04:05;;;;;;;13.03;7.97;;;;;;;15.49;79.87;101028.34;5010588;28;20116;-81
2022/06/23 01:06:41;;;;;;;12.87;8.07;;;;;;;15.66;79.99;101033.88;5006218;28;20045;-81
2022/06/23 01:09:38;;;;;;;13.23;8.20;;;;;;;15.52;80.65;101038.78;5010417;28;20038;-81
2022/06/23 01:12:26;;;;;;;12.97;8.80;;;;;;;15.32;81.37;101033.69;5011127;28;20076;-83
2022/06/23 01:15:03;;;;;;;16.37;8.90;;;;;;;15.38;81.98;101031.09;4997739;28;20065;-80
2022/06/23 01:17:40;;;;;;;13.90;8.80;;;;;;;15.17;81.95;101006.88;5010144;28;20100;-81
2022/06/23 01:20:24;;;;;;;16.97;9.70;;;;;;;15.44;81.31;101028.22;5006679;28;20109;-84
2022/06/23 01:22:49;;;;;;;14.63;9.20;;;;;;;15.29;82.41;101027.91;5012051;28;20045;-81
2022/06/23 01:25:52;;;;;;;15.53;9.80;;;;;;;15.32;82.29;101030.13;5007765;28;20446;-80
2022/06/23 01:28:21;;;;;;;13.40;8.97;;;;;;;15.30;82.53;101016.75;5009677;28;20033;-81
2022/06/23 01:31:05;;;;;;;15.23;9.63;;;;;;;15.28;82.28;101016.13;5009112;28;20335;-81
2022/06/23 01:33:51;;;;;;;16.53;9.33;;;;;;;15.31;82.46;101015.69;5005566;28;20101;-81
2022/06/23 01:36:36;;;;;;;15.43;9.87;;;;;;;15.37;83.21;101022.06;5010474;28;20032;-80
2022/06/23 01:39:20;;;;;;;14.85;10.35;;;;;;;15.27;84.66;101019.94;5022486;28;20060;-80
2022/06/23 01:41:56;;;;;;;14.90;9.85;;;;;;;15.21;84.25;101023.63;5010748;28;20490;-81
2022/06/23 01:44:34;;;;;;;16.53;10.10;;;;;;;15.17;84.86;101019.72;5007979;28;20033;-81
2022/06/23 01:47:02;;;;;;;16.30;10.03;;;;;;;15.17;84.32;101023.25;5007599;28;20030;-82
2022/06/23 01:49:33;;;;;;;17.97;10.93;;;;;;;15.14;84.44;101029.19;5007956;28;20040;-80
2022/06/23 01:52:19;;;;;;;16.47;9.60;;;;;;;15.19;83.82;101020.31;5006919;28;20382;-82
2022/06/23 01:54:52;;;;;;;16.83;10.33;;;;;;;15.24;83.83;101027.78;5009768;28;20029;-80
2022/06/23 01:57:35;;;;;;;14.47;10.10;;;;;;;15.14;83.04;101006.56;5007385;28;20057;-81
2022/06/23 02:00:08;;;;;;;17.67;10.50;;;;;;;15.21;83.72;101031.81;5008330;28;20352;-80
2022/06/23 02:02:42;;;;;;;15.23;10.07;;;;;;;15.17;84.62;101027.91;5025356;28;20120;-81
2022/06/23 02:05:11;;;;;;;;;;;;;;;15.25;83.34;101024.81;5006756;28;20041;-81
2022/06/23 02:07:39;;;;;;;15.63;9.80;;;;;;;15.20;83.65;101021.94;5008668;28;19921;-80
2022/06/23 02:10:42;;;;;;;13.83;9.70;;;;;;;15.11;83.44;101017.91;5013210;28;20370;-81
2022/06/23 02:13:14;;;;;;;17.43;10.17;;;;;;;15.18;83.41;101027.66;4996325;28;20033;-80
2022/06/23 02:15:49;;;;;;;14.33;9.57;;;;;;;15.25;82.43;101019.34;5005856;28;20014;-80
2022/06/23 02:18:44;;;;;;;16.83;9.77;;;;;;;15.26;81.82;101017.44;5011203;28;20036;-81
2022/06/23 02:21:35;;;;;;;15.50;10.13;;;;;;;15.28;82.44;101018.84;4990988;28;20025;-81
2022/06/23 02:24:31;;;;;;;17.03;10.10;;;;;;;15.30;81.58;101024.94;5006404;28;20049;-82
2022/06/23 02:27:14;;;;;;;14.83;10.17;;;;;;;15.22;81.73;101018.97;5011027;28;20030;-81
2022/06/23 02:29:50;;;;;;;15.40;9.60;;;;;;;15.32;81.30;101025.50;5007708;28;20144;-82
2022/06/23 02:32:23;;;;;;;17.70;9.83;;;;;;;15.16;81.24;101010.72;5003255;28;20490;-80
2022/06/23 02:35:13;;;;;;;16.80;9.30;;;;;;;15.28;80.50;101018.84;5012749;28;20030;-80
2022/06/23 02:38:05;;;;;;;18.60;9.87;;;;;;;15.29;80.85;101014.25;5007359;28;20060;-81
2022/06/23 02:40:45;;;;;;;14.87;9.40;;;;;;;15.22;80.90;101003.47;5006730;28;20414;-83
2022/06/23 02:43:28;;;;;;;15.77;9.77;;;;;;;15.19;80.60;101014.84;5004573;28;20041;-80
2022/06/23 02:46:11;;;;;;;17.70;10.33;;;;;;;15.21;80.88;101012.72;5005884;28;20064;-80
2022/06/23 02:48:43;;;;;;;16.93;10.00;;;;;;;15.27;80.10;101014.50;5010633;28;20032;-81
2022/06/23 02:51:20;;;;;;;16.40;10.07;;;;;;;15.29;79.78;101015.06;5008501;28;20737;-81
2022/06/23 02:54:09;;;;;;;17.77;9.90;;;;;;;15.29;79.27;101014.25;5007192;28;20026;-81
2022/06/23 02:56:48;;;;;;;16.30;9.57;;;;;;;15.33;79.13;101009.97;5006117;28;20091;-82
2022/06/23 02:59:35;;;;;;;17.30;10.10;;;;;;;15.24;79.70;101006.75;5005206;28;21367;-81
2022/06/23 03:02:13;;;;;;;15.37;9.43;;;;;;;15.36;78.91;101012.22;5009597;28;20025;-81
2022/06/23 03:04:46;;;;;;;16.63;10.03;;;;;;;15.29;79.20;101001.41;5002576;28;20033;-80
2022/06/23 03:07:26;;;;;;;16.93;9.57;;;;;;;15.26;79.66;101001.91;5007421;28;20022;-81
2022/06/23 03:10:03;;;;;;;15.00;9.07;;;;;;;15.29;79.21;101000.59;5008870;28;20037;-81
2022/06/23 03:12:45;;;;;;;14.63;9.40;;;;;;;15.19;78.98;100998.47;5006419;28;20030;-84
2022/06/23 03:15:21;;;;;;;15.70;9.60;;;;;;;15.18;78.90;100991.34;5009626;28;20036;-80
2022/06/23 03:17:47;;;;;;;14.47;9.10;;;;;;;15.21;78.87;100990.88;5006353;28;20037;-82
2022/06/23 03:20:38;;;;;;;16.23;9.53;;;;;;;15.19;79.38;100987.56;5006401;28;20022;-81
2022/06/23 03:23:13;;;;;;;12.70;8.50;;;;;;;15.27;78.15;100994.53;5021683;28;20065;-80
2022/06/23 03:25:38;;;;;;;19.43;8.97;;;;;;;15.21;78.07;100979.94;5009664;28;20026;-80
2022/06/23 03:28:28;;;;;;;16.80;9.50;;;;;;;15.16;78.06;100982.56;5007787;28;20068;-81
2022/06/23 03:31:08;;;;;;;14.53;8.53;;;;;;;15.25;77.12;100986.59;5008208;28;20120;-80
2022/06/23 03:33:39;;;;;;;12.20;8.27;;;;;;;15.33;76.75;100988.94;5006640;28;20033;-81
2022/06/23 03:36:17;;;;;;;13.70;8.70;;;;;;;15.32;76.53;100981.81;5003693;28;20113;-80
2022/06/23 03:41:42;;;;;;;13.57;9.10;;;;;;;15.25;77.03;100986.59;5007789;28;20048;-81
2022/06/23 03:44:31;;;;;;;13.63;8.10;;;;;;;15.32;76.53;100981.00;5005660;28;20030;-80
2022/06/23 03:47:12;;;;;;;15.73;8.10;;;;;;;15.32;77.29;100976.34;5006294;28;20758;-80
2022/06/23 03:49:56;;;;;;;16.43;8.57;;;;;;;15.38;76.62;100982.78;5006143;28;20029;-80
2022/06/23 03:52:45;;;;;;;14.05;8.52;;;;;;;15.36;75.73;100982.19;5008083;28;20029;-80
2022/06/23 03:55:25;;;;;;;13.37;8.50;;;;;;;15.39;75.22;100986.34;5011602;28;20094;-81
2022/06/23 03:58:18;;;;;;;14.73;8.80;;;;;;;15.40;74.49;100977.91;4992500;28;20029;-81
2022/06/23 04:01:08;;;;;;;12.80;8.73;;;;;;;15.42;74.93;100994.03;5010833;28;20057;-81
2022/06/23 04:03:48;;;;;;;13.23;8.20;;;;;;;15.41;74.47;100995.09;5005116;28;20050;-80
2022/06/23 04:06:35;;;;;;;14.40;8.77;;;;;;;15.40;74.59;100991.56;5010696;28;20432;-82
2022/06/23 04:09:25;;;;;;;13.90;8.70;;;;;;;15.44;74.46;100994.63;5012025;28;20025;-81
2022/06/23 04:12:14;;;;;;;12.47;9.00;;;;;;;15.44;74.61;100995.47;5012048;28;20059;-82
2022/06/23 04:15:03;;;;;;;13.20;8.43;;;;;;;15.48;75.20;100990.34;5007888;28;20021;-81
2022/06/23 04:17:34;;;;;;;14.70;9.03;;;;;;;15.48;74.55;100984.91;5011700;28;20022;-80
2022/06/23 04:20:09;;;;;;;15.40;9.13;;;;;;;15.48;74.04;100988.44;5008569;28;20367;-80
2022/06/23 04:23:12;;;;;;;14.43;8.77;;;;;;;15.51;74.58;100992.59;5010963;28;20117;-80
2022/06/23 04:25:57;;;;;;;13.63;9.17;;;;;;;15.55;75.29;100985.59;5014199;28;20029;-80
2022/06/23 04:28:27;;;;;;;12.10;8.50;;;;;;;15.56;74.38;100992.72;5010420;28;20014;-80
2022/06/23 04:30:56;;;;;;;12.70;8.57;;;;;;;15.60;73.55;100987.56;5008834;28;20030;-80
2022/06/23 04:33:24;;;;;;;14.90;8.47;;;;;;;15.61;73.47;100989.25;5007980;28;20477;-81
2022/06/23 04:35:52;;;;;;;12.67;9.03;;;;;;;15.67;74.99;100994.56;5013189;28;20029;-81
2022/06/23 04:38:32;;;;;;;13.67;8.83;;;;;;;15.64;73.93;100994.22;5009067;28;20037;-80
2022/06/23 04:41:14;;;;;;;15.07;8.30;;;;;;;15.73;75.06;101003.69;5006373;28;20028;-80
2022/06/23 04:43:45;;;;;;;12.03;7.93;;;;;;;15.73;73.83;100991.94;5010635;28;20034;-80
2022/06/23 04:46:48;;;;;;;14.23;9.10;;;;;;;15.81;73.62;100991.59;5010452;28;20054;-81
2022/06/23 04:49:35;;;;;;;14.87;8.77;;;;;;;15.85;73.77;100988.13;5010690;28;20105;-80
2022/06/23 04:52:06;;;;;;;11.60;8.43;;;;;;;15.90;74.24;100987.41;5007939;28;20073;-81
2022/06/23 04:54:40;;;;;;;13.63;8.73;;;;;;;15.95;74.18;100981.19;5007548;28;20367;-81
2022/06/23 04:57:06;;;;;;;;;;;;;;;16.04;73.45;100977.00;5008666;28;20049;-81
2022/06/23 04:59:44;;;;;;;13.10;8.03;;;;;;;16.04;72.64;100983.28;5009501;28;20406;-80
2022/06/23 05:02:23;;;;;;;13.40;8.43;;;;;;;16.09;72.27;100998.09;5010182;28;20036;-79
2022/06/23 05:05:28;;;;;;;16.27;8.70;;;;;;;16.18;71.44;100996.66;5007153;28;20276;-79
2022/06/23 05:08:08;;;;;;;16.95;8.52;;;;;;;16.24;70.67;100995.69;5006114;28;20482;-80
2022/06/23 05:10:51;;;;;;;14.30;8.13;;;;;;;16.27;70.86;100994.34;5008820;28;20041;-80
2022/06/23 05:13:23;;;;;;;16.20;8.70;;;;;;;16.33;70.81;100994.19;5005449;28;20025;-81
2022/06/23 05:16:06;;;;;;;15.55;8.80;;;;;;;16.45;70.83;100993.28;5009769;28;20062;-80
2022/06/23 05:18:40;;;;;;;14.00;8.70;;;;;;;16.48;69.50;101001.00;5008615;28;20036;-82
2022/06/23 05:21:09;;;;;;;10.98;8.18;;;;;;;16.52;68.86;100993.94;5009126;28;20033;-80
2022/06/23 05:23:50;;;;;;;13.17;8.80;;;;;;;16.52;69.61;100983.84;5007374;28;20207;-83
2022/06/23 05:26:26;;;;;;;13.93;8.73;;;;;;;16.67;69.10;100996.94;5007927;28;20470;-83
2022/06/23 05:29:01;;;;;;;14.17;8.57;;;;;;;16.76;68.73;100999.28;5010680;28;20044;-80
2022/06/23 05:31:35;;;;;;;15.23;8.30;;;;;;;16.80;67.41;101000.44;5009627;28;20022;-80
2022/06/23 05:34:08;;;;;;;15.10;8.70;;;;;;;16.88;68.47;101000.00;5005380;28;20481;-82
2022/06/23 05:36:47;;;;;;;14.07;8.77;;;;;;;16.97;68.59;101001.28;5011963;28;20025;-80
2022/06/23 05:39:31;;;;;;;11.33;8.30;;;;;;;17.03;68.11;101003.00;5012347;28;20026;-80
2022/06/23 05:42:01;;;;;;;12.10;8.07;;;;;;;17.11;67.33;101003.63;5008529;28;20037;-80
2022/06/23 05:44:33;;;;;;;13.27;8.60;;;;;;;17.18;67.77;100987.88;5015790;28;20040;-80
2022/06/23 05:47:00;;;;;;;14.20;8.40;;;;;;;17.28;67.29;100996.22;5015885;28;20032;-80
2022/06/23 05:49:32;;;;;;;14.23;8.47;;;;;;;17.34;66.35;101003.44;5014548;28;20034;-81
2022/06/23 05:52:06;;;;;;;14.97;8.80;;;;;;;17.42;66.47;100995.84;5014536;28;20533;-80
2022/06/23 05:54:47;;;;;;;14.83;8.43;;;;;;;17.53;66.75;100987.50;5019762;28;20026;-79
2022/06/23 05:57:24;;;;;;;14.17;8.77;;;;;;;17.64;66.50;100991.22;5033544;28;20095;-80
2022/06/23 06:00:17;;;;;;;12.70;8.83;;;;;;;17.74;65.79;101000.63;5014055;28;20053;-80
2022/06/23 06:03:11;;;;;;;14.13;8.13;;;;;;;17.80;65.41;101008.66;5007112;28;20033;-81
2022/06/23 06:05:41;;;;;;;14.57;8.80;;;;;;;17.94;65.56;101006.38;5008967;28;20029;-82
2022/06/23 06:09:35;;;;;;;11.43;8.80;;;;;;;18.08;66.10;101003.22;5011567;28;20032;-80
2022/06/23 06:11:23;;;;;;;14.00;8.80;;;;;;;18.17;64.70;101007.19;5014059;28;20113;-81
2022/06/23 06:13:49;;;;;;;17.87;8.70;;;;;;;18.24;63.64;101002.31;5008915;28;20049;-81
2022/06/23 06:16:14;;;;;;;14.43;8.87;;;;;;;18.30;64.24;100984.78;5008648;28;20046;-80
2022/06/23 06:18:43;;;;;;;14.27;8.50;;;;;;;18.45;63.94;100997.00;5008919;28;20083;-81
2022/06/23 06:21:12;;;;;;;13.07;8.70;;;;;;;18.59;63.52;100991.88;5008757;28;20041;-83
2022/06/23 06:23:55;;;;;;;14.33;8.33;;;;;;;18.70;63.47;100988.16;4990693;28;20045;-84
2022/06/23 06:26:27;;;;;;;11.30;8.47;;;;;;;18.83;63.91;100989.59;5004406;28;20040;-84
2022/06/23 06:28:59;;;;;;;14.27;8.33;;;;;;;18.94;62.63;100999.59;5001122;28;20053;-82
2022/06/23 06:31:40;;;;;;;12.90;8.77;;;;;;;19.08;62.06;101004.63;4994081;28;20048;-83
2022/06/23 06:34:13;;;;;;;12.10;8.20;;;;;;;19.20;60.61;100999.75;4996129;28;20048;-82
2022/06/23 06:36:41;;;;;;;16.57;8.40;;;;;;;19.27;61.39;100996.75;4995366;28;20160;-82
2022/06/23 06:39:12;;;;;;;11.70;8.37;;;;;;;19.46;62.55;100999.88;4996977;28;20095;-81
2022/06/23 06:41:42;;;;;;;13.23;8.27;;;;;;;19.60;60.88;100994.72;4996372;28;20129;-80
2022/06/23 06:44:09;;;;;;;12.67;8.97;;;;;;;19.67;61.08;100982.38;4996280;28;20065;-81
2022/06/23 06:46:37;;;;;;;13.75;8.75;;;;;;;19.85;61.74;100996.75;4995839;28;20039;-83
2022/06/23 06:49:02;;;;;;;12.55;7.97;;;;;;;19.90;59.88;100991.28;4996636;28;20076;-85
2022/06/23 06:51:29;;;;;;;14.45;8.07;;;;;;;20.00;60.40;100994.03;4996134;28;20037;-82
2022/06/23 06:54:02;;;;;;;11.70;7.93;;;;;;;20.02;59.31;100991.88;4995989;28;20038;-82
2022/06/23 06:56:42;;;;;;;11.45;7.30;;;;;;;20.24;60.76;100996.31;4994521;28;20038;-82
2022/06/23 06:59:40;;;;;;;12.13;7.93;;;;;;;20.41;61.37;101004.28;4994954;28;20417;-85
2022/06/23 07:02:23;;;;;;;13.85;8.20;;;;;;;20.51;59.69;100992.47;4992931;28;20053;-83
2022/06/23 07:04:55;;;;;;;14.52;8.00;;;;;;;20.61;58.56;101005.41;4994165;28;20809;-83
2022/06/23 07:07:26;;;;;;;14.27;8.25;;;;;;;20.68;58.53;100993.03;4994104;28;20045;-82
2022/06/23 07:09:57;;;;;;;12.10;7.75;;;;;;;20.81;58.31;100999.91;4994727;28;20037;-81
2022/06/23 07:12:30;;;;;;;11.30;7.70;;;;;;;20.96;58.93;100995.50;4996147;28;20059;-83
2022/06/23 07:15:04;;;;;;;10.63;7.68;;;;;;;21.06;57.75;100996.28;4996240;28;20088;-83
2022/06/23 07:17:34;;;;;;;11.82;7.82;;;;;;;21.22;57.80;101004.53;4995655;28;20041;-82
2022/06/23 07:20:12;;;;;;;12.30;7.70;;;;;;;21.34;58.13;101005.03;4996160;28;20044;-82
2022/06/23 07:22:53;;;;;;;12.90;7.50;;;;;;;21.50;58.33;100999.44;4995652;28;20050;-82
2022/06/23 07:25:26;;;;;;;14.65;8.07;;;;;;;21.56;56.80;101007.47;4995483;28;20462;-83
2022/06/23 07:27:57;;;;;;;13.52;8.32;;;;;;;21.65;56.96;101009.63;4993459;28;20096;-83
2022/06/23 07:30:28;;;;;;;12.80;8.40;;;;;;;21.74;56.43;101014.25;4996284;28;20068;-82
2022/06/23 07:32:59;;;;;;;11.02;7.78;;;;;;;21.94;58.00;101017.22;4995510;28;20041;-82
2022/06/23 07:35:42;;;;;;;12.82;7.82;;;;;;;22.08;57.04;101012.72;4995948;28;20527;-82
2022/06/23 07:38:28;;;;;;;11.88;7.68;;;;;;;22.23;57.32;101007.06;4995501;28;20136;-82
2022/06/23 07:41:03;;;;;;;12.38;9.23;;;;;;;22.38;57.09;101011.69;4996196;28;20038;-86
2022/06/23 07:43:40;;;;;;;12.38;9.10;;;;;;;22.48;57.21;101015.50;4995059;28;20045;-83
2022/06/23 07:46:06;;;;;;;15.02;9.65;;;;;;;22.56;56.78;101017.63;4995655;28;20037;-83
2022/06/23 07:48:34;;;;;;;16.15;9.15;;;;;;;22.57;56.36;101006.31;4995904;28;20034;-83
2022/06/23 07:51:02;;;;;;;16.15;10.02;;;;;;;22.71;56.40;101005.63;4996341;28;20042;-84
2022/06/23 07:53:31;;;;;;;14.18;9.80;;;;;;;22.75;54.97;100993.75;4995645;28;20030;-82
2022/06/23 07:55:58;;;;;;;15.32;10.20;;;;;;;22.96;56.46;100987.19;4995745;28;20042;-82
2022/06/23 07:58:30;;;;;;;14.38;9.68;;;;;;;23.14;56.59;100994.75;4993957;28;20034;-82
2022/06/23 08:01:01;;;;;;;15.00;10.18;;;;;;;23.30;55.55;101003.69;4994870;28;20033;-82
2022/06/23 08:03:32;;;;;;;15.15;10.57;;;;;;;23.40;54.22;100994.44;4995460;28;20305;-82
2022/06/23 08:06:03;;;;;;;14.32;9.38;;;;;;;23.68;55.32;100997.44;4995308;28;20474;-83
2022/06/23 08:08:32;;;;;;;13.85;9.43;;;;;;;23.73;56.46;100977.97;4994983;28;20044;-83
2022/06/23 08:13:51;;;;;;;14.73;10.05;;;;;;;24.21;54.55;100996.44;4999956;28;20863;-83
2022/06/23 08:19:15;;;;;;;15.20;10.10;;;;;;;24.57;53.64;100995.84;5000062;28;20084;-82
2022/06/23 08:21:50;;;;;;;14.77;10.77;;;;;;;24.83;52.93;100989.88;5000440;28;20498;-82
2022/06/23 08:24:22;;;;;;;17.75;11.48;;;;;;;25.05;53.02;100981.72;5000192;28;20034;-83
2022/06/23 08:26:57;;;;;;;18.35;10.27;;;;;;;25.37;51.85;100988.31;5001018;28;20060;-84
2022/06/23 08:29:27;;;;;;;18.33;10.60;;;;;;;25.68;50.98;100982.13;5000001;28;20051;-82
2022/06/23 08:31:53;;;;;;;16.17;11.15;;;;;;;25.87;50.45;100983.94;5014456;28;20132;-82
2022/06/23 08:34:18;;;;;;;18.38;10.90;;;;;;;26.23;49.75;100988.66;5000098;28;20037;-81
2022/06/23 08:36:47;;;;;;;13.07;9.57;;;;;;;26.56;51.01;100980.91;4998618;28;20515;-83
2022/06/23 08:39:37;;;;;;;14.25;9.95;;;;;;;26.86;49.29;100988.78;5004767;28;20030;-84
2022/06/23 08:42:09;;;;;;;16.05;10.55;;;;;;;26.93;47.37;100989.97;5003890;28;20156;-82
2022/06/23 08:44:54;;;;;;;16.63;9.90;;;;;;;27.35;50.77;100994.38;5003946;28;20428;-82
2022/06/23 08:48:01;;;;;;;15.38;10.25;;;;;;;27.77;47.70;100990.09;5004242;28;20065;-82
2022/06/23 08:50:33;;;;;;;15.93;10.88;;;;;;;27.70;46.22;100989.78;5003394;28;20070;-84
2022/06/23 08:53:01;;;;;;;17.85;10.68;;;;;;;27.69;46.30;100992.84;5003607;28;20033;-81
2022/06/23 08:55:40;;;;;;;16.20;10.73;;;;;;;27.92;47.45;100991.59;5003478;28;20125;-83
2022/06/23 08:58:33;;;;;;;16.88;10.57;;;;;;;27.99;45.74;100991.09;5003663;28;20042;-82
2022/06/23 09:01:17;;;;;;;16.52;9.55;;;;;;;28.16;46.74;100984.72;5003466;28;20048;-82
2022/06/23 09:04:07;;;;;;;14.98;9.30;;;;;;;28.48;46.08;100996.53;5003126;28;20096;-83
2022/06/23 09:06:35;;;;;;;16.33;9.10;;;;;;;28.51;45.14;100987.50;5004236;28;20040;-83
2022/06/23 09:09:24;;;;;;;14.27;9.25;;;;;;;28.65;44.22;100986.50;5003170;28;20078;-83
2022/06/23 09:12:20;;;;;;;12.85;8.52;;;;;;;29.04;44.56;100982.59;5003145;28;20073;-83
2022/06/23 09:15:20;;;;;;;15.88;9.27;;;;;;;29.10;45.40;100975.69;5003285;28;20037;-82
2022/06/23 09:18:21;;;;;;;11.05;7.22;;;;;;;29.50;44.36;100970.91;5003064;28;20041;-83
2022/06/23 09:21:14;;;;;;;12.70;7.65;;;;;;;29.40;42.93;100959.00;5001534;28;20478;-83
2022/06/23 09:23:50;;;;;;;13.45;6.43;;;;;;;29.76;42.26;100968.75;5003045;28;20054;-84
2022/06/23 09:26:16;;;;;;;13.45;7.10;;;;;;;29.85;42.56;100967.88;5007656;28;20041;-84
2022/06/23 09:28:53;;;;;;;12.98;6.78;;;;;;;29.93;44.87;100970.66;5003377;28;20048;-83
2022/06/23 09:31:25;;;;;;;14.98;7.03;;;;;;;29.97;43.07;100962.38;5002760;28;20548;-83
2022/06/23 09:34:28;;;;;;;11.50;7.47;;;;;;;30.17;44.14;100968.31;5002839;28;20255;-87
2022/06/23 09:37:10;;;;;;;13.38;7.45;;;;;;;30.36;43.00;100965.00;5003087;28;20075;-85
2022/06/23 09:39:44;;;;;;;13.30;6.95;;;;;;;30.39;42.92;100967.91;5002802;28;20030;-83
2022/06/23 09:42:37;;;;;;;14.05;6.28;;;;;;;30.75;43.21;100969.22;5004855;28;20042;-82
2022/06/23 09:45:33;;;;;;;11.32;6.13;;;;;;;30.94;42.75;100963.06;5014622;28;20025;-82
2022/06/23 09:48:20;;;;;;;12.05;7.10;;;;;;;30.51;40.47;100953.19;5003553;28;20047;-82
2022/06/23 09:50:45;;;;;;;12.80;6.30;;;;;;;30.44;40.68;100956.53;5001853;28;20116;-85
2022/06/23 09:53:33;;;;;;;13.90;6.10;;;;;;;30.73;42.26;100953.94;5002474;28;21019;-83
2022/06/23 09:56:10;;;;;;;10.88;4.78;;;;;;;30.83;42.58;100950.66;5002840;28;20046;-83
2022/06/23 09:58:48;;;;;;;10.30;4.20;;;;;;;30.89;41.08;100956.88;5002439;28;20164;-84
2022/06/23 10:01:13;;;;;;;9.98;3.63;;;;;;;30.51;38.57;100955.97;5002046;28;20113;-86
2022/06/23 10:03:48;;;;;;;9.27;3.20;;;;;;;30.20;40.98;100948.88;5002354;28;20041;-83
2022/06/23 10:06:30;;;;;;;9.55;3.00;;;;;;;30.12;40.16;100944.16;5006418;28;20076;-85
2022/06/23 10:09:26;;;;;;;8.05;3.38;;;;;;;29.98;39.85;100938.88;5002208;28;20030;-84
2022/06/23 10:12:10;;;;;;;8.27;3.20;;;;;;;30.09;40.66;100945.66;5002543;28;20080;-84
2022/06/23 10:15:03;;;;;;;9.57;3.30;;;;;;;29.96;41.35;100936.44;5006655;28;20029;-81
2022/06/23 10:17:42;;;;;;;8.57;3.15;;;;;;;29.87;40.78;100941.28;5001997;28;20033;-84
2022/06/23 10:20:16;;;;;;;11.73;3.65;;;;;;;29.85;40.97;100924.06;5001908;28;20133;-84
2022/06/23 10:22:52;;;;;;;10.85;3.60;;;;;;;30.00;40.61;100942.13;5001939;28;20367;-83
2022/06/23 10:25:20;;;;;;;12.45;3.63;;;;;;;30.14;41.28;100939.88;5001361;28;20939;-82
2022/06/23 10:28:04;;;;;;;9.80;3.50;;;;;;;30.48;42.29;100935.13;5001666;28;20037;-82
2022/06/23 10:30:32;;;;;;;;;;;;;;;30.93;40.71;100946.63;5001751;28;20032;-83
2022/06/23 10:32:57;;;;;;;9.50;3.30;;;;;;;30.58;41.90;100933.06;5002732;28;19924;-84
2022/06/23 10:35:52;;;;;;;12.90;3.83;;;;;;;30.16;41.08;100931.16;5000755;28;20037;-86
2022/06/23 10:38:55;;;;;;;13.65;4.07;;;;;;;30.50;41.98;100937.56;5001197;28;20045;-84
2022/06/23 10:41:57;;;;;;;15.27;3.80;;;;;;;30.50;42.59;100928.38;5001625;28;20049;-86
2022/06/23 10:44:32;;;;;;;10.10;3.70;;;;;;;30.26;42.75;100921.50;5001717;28;20033;-84
2022/06/23 10:47:12;;;;;;;10.80;3.75;;;;;;;30.27;42.71;100918.41;5002455;28;20443;-81
2022/06/23 10:50:15;;;;;;;9.43;3.90;;;;;;;30.12;43.45;100921.81;4999507;28;20030;-85
2022/06/23 10:52:55;;;;;;;11.13;4.47;;;;;;;30.04;44.50;100917.13;4995390;28;20149;-82
2022/06/23 10:55:38;;;;;;;11.48;4.53;;;;;;;30.27;45.19;100917.56;4999998;28;20033;-83
2022/06/23 10:58:18;;;;;;;11.25;4.78;;;;;;;29.56;45.12;100914.53;4999668;28;20603;-82
2022/06/23 11:01:04;;;;;;;14.05;5.03;;;;;;;29.46;45.43;100912.16;4998672;28;20026;-83
2022/06/23 11:04:14;;;;;;;11.43;4.43;;;;;;;29.63;45.96;100909.25;4997701;28;20313;-83
2022/06/23 11:07:06;;;;;;;12.98;4.55;;;;;;;30.03;45.74;100907.94;4955789;28;20102;-83
2022/06/23 11:09:44;;;;;;;9.93;4.43;;;;;;;29.92;43.15;100901.97;4998969;28;20209;-83
2022/06/23 11:12:38;;;;;;;14.00;3.83;;;;;;;30.00;43.09;100908.63;4998550;28;20041;-83
2022/06/23 11:15:07;;;;;;;;;;;;;;;30.30;43.35;100906.53;4968605;28;20062;-82
2022/06/23 11:17:54;;;;;;;10.90;5.30;;;;;;;29.89;44.10;100908.25;4999444;28;20413;-85
2022/06/23 11:21:00;;;;;;;12.52;5.10;;;;;;;29.79;43.67;100905.84;5000612;28;20037;-84
2022/06/23 11:23:53;;;;;;;10.55;4.88;;;;;;;29.56;44.30;100894.19;5001565;28;20103;-83
2022/06/23 11:26:24;;;;;;;13.60;5.03;;;;;;;29.81;44.61;100890.38;5001579;28;20144;-81
2022/06/23 11:29:07;;;;;;;10.63;4.28;;;;;;;29.94;43.80;100898.84;5001346;28;20061;-85
2022/06/23 11:31:49;;;;;;;10.57;4.70;;;;;;;30.26;43.81;100907.53;5001102;28;20132;-82
2022/06/23 11:34:28;;;;;;;13.35;5.22;;;;;;;30.21;42.80;100897.41;5001065;28;20044;-83
2022/06/23 11:37:18;;;;;;;11.23;4.45;;;;;;;30.46;43.03;100891.91;5000208;28;20422;-82
2022/06/23 11:40:10;;;;;;;10.60;4.85;;;;;;;30.48;43.00;100889.59;5000123;28;20041;-85
2022/06/23 11:43:15;;;;;;;10.88;4.38;;;;;;;30.54;43.80;100892.97;5001036;28;20042;-84
2022/06/23 11:45:57;;;;;;;11.10;4.05;;;;;;;30.57;41.66;100892.28;5001098;28;20034;-84
2022/06/23 11:48:41;;;;;;;11.20;4.28;;;;;;;30.47;41.56;100885.16;5001321;28;20165;-83
2022/06/23 11:51:25;;;;;;;10.38;4.53;;;;;;;30.75;43.35;100890.06;5000402;28;20069;-83
2022/06/23 11:54:31;;;;;;;12.50;4.70;;;;;;;30.68;41.63;100873.06;5000612;28;20044;-84
2022/06/23 11:56:57;;;;;;;11.02;4.15;;;;;;;30.41;40.52;100881.75;4981585;28;20557;-85
2022/06/23 11:59:43;;;;;;;9.52;4.63;;;;;;;30.13;42.15;100885.16;5000378;28;20531;-85
2022/06/23 12:02:08;;;;;;;13.65;4.50;;;;;;;30.01;42.59;100881.53;5009478;28;20112;-82
2022/06/23 12:04:39;;;;;;;11.02;4.45;;;;;;;30.40;44.74;100880.09;5012575;28;20435;-81
2022/06/23 12:07:29;;;;;;;12.07;4.20;;;;;;;30.38;42.48;100873.22;5021338;28;20033;-83
2022/06/23 12:09:57;;;;;;;11.05;4.57;;;;;;;30.52;43.72;100867.34;5022286;28;20033;-82
2022/06/23 12:12:23;;;;;;;9.55;4.18;;;;;;;30.54;43.92;100867.81;5017074;28;20107;-81
2022/06/23 12:14:51;;;;;;;10.65;3.92;;;;;;;30.31;40.65;100866.25;5014741;28;20418;-82
2022/06/23 12:17:26;;;;;;;11.07;3.78;;;;;;;30.35;41.33;100873.94;5019911;28;20028;-82
2022/06/23 12:20:33;;;;;;;9.27;3.88;;;;;;;30.37;42.85;100866.00;5025751;28;20017;-80